Terminal Aerodrome Forecast
Issued by NWS

Current Version | Previous Version | Graphics & Text | Print | Product List | Glossary On
Versions: 1 2 3 4 5 6 7 8 9 10 11 12 13 14 15 16 17 18 19 20 21 22 23 24 25 26
674
FTUS41 KILN 290531
TAFLUK
TAF
KLUK 290531Z 2906/3006 00000KT 4SM BR FEW004 SCT150
     FM290900 00000KT 2SM BR FEW004
      TEMPO 2910/2912 1/2SM FG SCT004
     FM291300 VRB03KT P6SM SCT025
     FM291600 25004KT P6SM VCTS BKN040CB BKN150
     FM300100 00000KT P6SM SCT030 BKN150=

USA.gov is the U.S. government's official web portal to all federal, state and local government web resources and services.